CheckWX is a tool to help pilots better visualize weather data.  It is not intended as a substitute for an official pre-flight weather briefing.

20:02:46 UTC

KDLL METAR
Baraboo-Wisconsin Dells Regional Airport
Baraboo, Wisconsin, USA
Current

8 mins ago

KDLL 231955Z AUTO 07004KT 4SM BR SCT013 SCT021 OVC047 M01/M02 A2999 RMK AO2 T10141023
Observed
Jan-23 @ 19:55 UTC
Wind
  • 070° at 4 KTS
Visibility
4 SM
Flight Rules
MVFR
Conditions
Mist
Cloud Levels
  • Scattered at 1,300' AGL
  • Scattered at 2,100' AGL
  • Overcast at 4,700' AGL
Temperature
-1°C / 30°F
Dewpoint
-2°C / 28°F
Humidity
93%
Altimeter
29.99" Hg
Pressure
1015.62 hPa
Previous

28 mins ago

KDLL 231935Z AUTO 06005KT 3SM BR SCT013 BKN021 OVC049 M01/M03 A2999 RMK AO2 T10151026
Observed
Jan-23 @ 19:35 UTC
Wind
  • 060° at 5 KTS
Visibility
3 SM
Flight Rules
MVFR
Conditions
Mist
Cloud Levels
  • Scattered at 1,300' AGL
  • Broken at 2,100' AGL
  • Overcast at 4,900' AGL
Temperature
-2°C / 28°F
Dewpoint
-3°C / 27°F
Humidity
93%
Altimeter
29.99" Hg
Pressure
1015.62 hPa
Previous

1 hour ago

KDLL 231855Z AUTO 07005KT 1 3/4SM -SN BKN009 OVC012 M01/M02 A2999 RMK AO2 T10151022
Observed
Jan-23 @ 18:55 UTC
Wind
  • 070° at 5 KTS
Visibility
1 3/4 SM
Flight Rules
IFR
Conditions
Light Snow
Cloud Levels
  • Broken at 900' AGL
  • Overcast at 1,200' AGL
Temperature
-2°C / 28°F
Dewpoint
-2°C / 28°F
Humidity
100%
Altimeter
29.99" Hg
Pressure
1015.62 hPa